sensor_id;sensor_type;location;lat;lon;timestamp;pressure;altitude;pressure_sealevel;temperature;humidity
46718;BME280;32448;44.960;-0.698;2023-01-04T00:01:28;103091.06;;;4.81;100.00
46718;BME280;32448;44.960;-0.698;2023-01-04T00:03:57;103077.97;;;4.80;100.00
46718;BME280;32448;44.960;-0.698;2023-01-04T00:06:25;103074.06;;;4.85;100.00
46718;BME280;32448;44.960;-0.698;2023-01-04T00:08:53;103074.28;;;4.88;100.00
46718;BME280;32448;44.960;-0.698;2023-01-04T00:11:21;103052.06;;;4.80;100.00
46718;BME280;32448;44.960;-0.698;2023-01-04T00:13:51;103076.69;;;4.96;100.00
46718;BME280;32448;44.960;-0.698;2023-01-04T00:16:21;103070.63;;;4.96;100.00
46718;BME280;32448;44.960;-0.698;2023-01-04T00:18:55;103054.47;;;4.88;100.00
46718;BME280;32448;44.960;-0.698;2023-01-04T00:21:25;103058.56;;;4.96;100.00
46718;BME280;32448;44.960;-0.698;2023-01-04T00:23:54;103058.78;;;4.99;100.00
46718;BME280;32448;44.960;-0.698;2023-01-04T00:26:24;103057.31;;;5.03;100.00
46718;BME280;32448;44.960;-0.698;2023-01-04T00:28:53;103058.34;;;5.05;100.00
46718;BME280;32448;44.960;-0.698;2023-01-04T00:31:23;103062.88;;;5.07;100.00
46718;BME280;32448;44.960;-0.698;2023-01-04T00:33:59;103017.28;;;4.88;100.00
46718;BME280;32448;44.960;-0.698;2023-01-04T00:36:33;103051.59;;;5.07;100.00
46718;BME280;32448;44.960;-0.698;2023-01-04T00:39:01;102992.03;;;4.73;100.00
46718;BME280;32448;44.960;-0.698;2023-01-04T00:41:40;103006.13;;;4.89;100.00
46718;BME280;32448;44.960;-0.698;2023-01-04T00:44:25;103030.88;;;5.07;100.00
46718;BME280;32448;44.960;-0.698;2023-01-04T00:46:58;103023.09;;;5.07;100.00
46718;BME280;32448;44.960;-0.698;2023-01-04T00:49:27;103013.50;;;5.06;100.00
46718;BME280;32448;44.960;-0.698;2023-01-04T00:51:55;103021.97;;;5.15;100.00
46718;BME280;32448;44.960;-0.698;2023-01-04T00:54:24;103028.16;;;5.17;100.00
46718;BME280;32448;44.960;-0.698;2023-01-04T00:56:52;103020.28;;;5.16;100.00
46718;BME280;32448;44.960;-0.698;2023-01-04T00:59:20;103010.56;;;5.13;100.00
46718;BME280;32448;44.960;-0.698;2023-01-04T01:02:02;103018.09;;;5.10;100.00
46718;BME280;32448;44.960;-0.698;2023-01-04T01:04:30;103027.16;;;5.15;100.00
46718;BME280;32448;44.960;-0.698;2023-01-04T01:06:57;103023.78;;;5.16;100.00
46718;BME280;32448;44.960;-0.698;2023-01-04T01:09:24;103020.38;;;5.17;100.00
46718;BME280;32448;44.960;-0.698;2023-01-04T01:11:52;103033.56;;;5.20;100.00
46718;BME280;32448;44.960;-0.698;2023-01-04T01:14:23;103017.22;;;5.21;100.00
46718;BME280;32448;44.960;-0.698;2023-01-04T01:16:52;103016.00;;;5.16;100.00
46718;BME280;32448;44.960;-0.698;2023-01-04T01:19:24;103015.41;;;5.20;100.00
46718;BME280;32448;44.960;-0.698;2023-01-04T01:21:52;103023.44;;;5.23;100.00
46718;BME280;32448;44.960;-0.698;2023-01-04T01:24:49;103010.47;;;5.23;100.00
46718;BME280;32448;44.960;-0.698;2023-01-04T01:27:59;103005.63;;;5.16;100.00
46718;BME280;32448;44.960;-0.698;2023-01-04T01:30:28;103010.47;;;5.23;100.00
46718;BME280;32448;44.960;-0.698;2023-01-04T01:32:55;102998.75;;;5.17;100.00
46718;BME280;32448;44.960;-0.698;2023-01-04T01:35:22;103001.47;;;5.18;100.00
46718;BME280;32448;44.960;-0.698;2023-01-04T01:37:53;103005.16;;;5.22;100.00
46718;BME280;32448;44.960;-0.698;2023-01-04T01:40:20;103012.16;;;5.23;100.00
46718;BME280;32448;44.960;-0.698;2023-01-04T01:42:48;103026.03;;;5.23;100.00
46718;BME280;32448;44.960;-0.698;2023-01-04T01:45:27;103032.66;;;5.31;100.00
46718;BME280;32448;44.960;-0.698;2023-01-04T01:48:09;103034.47;;;5.32;100.00
46718;BME280;32448;44.960;-0.698;2023-01-04T01:50:46;103011.59;;;5.15;100.00
46718;BME280;32448;44.960;-0.698;2023-01-04T01:53:18;103034.69;;;5.24;100.00
46718;BME280;32448;44.960;-0.698;2023-01-04T01:55:48;103038.31;;;5.26;100.00
46718;BME280;32448;44.960;-0.698;2023-01-04T01:58:32;103046.09;;;5.26;100.00
46718;BME280;32448;44.960;-0.698;2023-01-04T02:01:00;103058.81;;;5.23;100.00
46718;BME280;32448;44.960;-0.698;2023-01-04T02:03:35;103050.81;;;5.20;100.00
46718;BME280;32448;44.960;-0.698;2023-01-04T02:06:09;103046.75;;;5.23;100.00
46718;BME280;32448;44.960;-0.698;2023-01-04T02:08:40;103044.63;;;5.18;100.00
46718;BME280;32448;44.960;-0.698;2023-01-04T02:11:08;103045.63;;;5.20;100.00
46718;BME280;32448;44.960;-0.698;2023-01-04T02:13:38;103039.09;;;5.13;100.00
46718;BME280;32448;44.960;-0.698;2023-01-04T02:25:38;103031.19;;;5.11;100.00
46718;BME280;32448;44.960;-0.698;2023-01-04T02:34:04;103004.81;;;4.94;100.00
46718;BME280;32448;44.960;-0.698;2023-01-04T02:36:47;103013.25;;;5.03;100.00
46718;BME280;32448;44.960;-0.698;2023-01-04T02:42:15;103024.41;;;5.02;100.00
46718;BME280;32448;44.960;-0.698;2023-01-04T02:44:51;103026.22;;;5.03;100.00
46718;BME280;32448;44.960;-0.698;2023-01-04T02:47:35;103032.31;;;5.03;100.00
46718;BME280;32448;44.960;-0.698;2023-01-04T02:50:29;103011.00;;;4.96;100.00
46718;BME280;32448;44.960;-0.698;2023-01-04T02:53:02;103027.25;;;5.05;100.00
46718;BME280;32448;44.960;-0.698;2023-01-04T02:59:01;103016.41;;;4.99;100.00
46718;BME280;32448;44.960;-0.698;2023-01-04T03:04:54;103003.41;;;4.87;100.00
46718;BME280;32448;44.960;-0.698;2023-01-04T03:11:11;103005.94;;;4.86;100.00
46718;BME280;32448;44.960;-0.698;2023-01-04T03:14:08;103024.47;;;4.80;100.00
46718;BME280;32448;44.960;-0.698;2023-01-04T03:16:58;103012.31;;;4.79;100.00
46718;BME280;32448;44.960;-0.698;2023-01-04T03:19:26;103019.75;;;4.74;100.00
46718;BME280;32448;44.960;-0.698;2023-01-04T03:22:15;103010.72;;;4.69;100.00
46718;BME280;32448;44.960;-0.698;2023-01-04T03:25:05;103019.81;;;4.64;100.00
46718;BME280;32448;44.960;-0.698;2023-01-04T03:27:54;103017.13;;;4.63;100.00
46718;BME280;32448;44.960;-0.698;2023-01-04T03:30:52;103021.63;;;4.65;100.00
46718;BME280;32448;44.960;-0.698;2023-01-04T03:33:39;103007.44;;;4.60;100.00
46718;BME280;32448;44.960;-0.698;2023-01-04T03:36:41;103007.63;;;4.52;100.00
46718;BME280;32448;44.960;-0.698;2023-01-04T03:42:11;103013.34;;;4.48;100.00
46718;BME280;32448;44.960;-0.698;2023-01-04T03:48:19;103015.16;;;4.49;100.00
46718;BME280;32448;44.960;-0.698;2023-01-04T03:51:37;103002.53;;;4.42;100.00
46718;BME280;32448;44.960;-0.698;2023-01-04T03:54:36;103017.25;;;4.43;100.00
46718;BME280;32448;44.960;-0.698;2023-01-04T03:57:06;103011.72;;;4.38;100.00
46718;BME280;32448;44.960;-0.698;2023-01-04T03:59:38;103007.09;;;4.34;100.00
46718;BME280;32448;44.960;-0.698;2023-01-04T04:02:11;103022.09;;;4.38;100.00
46718;BME280;32448;44.960;-0.698;2023-01-04T04:04:42;103010.59;;;4.34;100.00
46718;BME280;32448;44.960;-0.698;2023-01-04T04:07:29;102981.47;;;4.15;100.00
46718;BME280;32448;44.960;-0.698;2023-01-04T04:10:15;103008.31;;;4.27;100.00
46718;BME280;32448;44.960;-0.698;2023-01-04T04:12:43;103002.28;;;4.17;100.00
46718;BME280;32448;44.960;-0.698;2023-01-04T04:15:10;103009.63;;;4.22;100.00
46718;BME280;32448;44.960;-0.698;2023-01-04T04:17:38;103013.25;;;4.24;100.00
46718;BME280;32448;44.960;-0.698;2023-01-04T04:20:06;103004.56;;;4.24;100.00
46718;BME280;32448;44.960;-0.698;2023-01-04T04:22:33;103013.63;;;4.29;100.00
46718;BME280;32448;44.960;-0.698;2023-01-04T04:25:01;103006.50;;;4.26;100.00
46718;BME280;32448;44.960;-0.698;2023-01-04T04:27:30;103005.06;;;4.30;100.00
46718;BME280;32448;44.960;-0.698;2023-01-04T04:30:00;103013.03;;;4.33;100.00
46718;BME280;32448;44.960;-0.698;2023-01-04T04:32:28;103006.19;;;4.33;100.00
46718;BME280;32448;44.960;-0.698;2023-01-04T04:34:55;103007.59;;;4.40;100.00
46718;BME280;32448;44.960;-0.698;2023-01-04T04:37:23;103011.84;;;4.39;100.00
46718;BME280;32448;44.960;-0.698;2023-01-04T04:39:53;103005.13;;;4.42;100.00
46718;BME280;32448;44.960;-0.698;2023-01-04T04:42:20;102997.34;;;4.42;100.00
46718;BME280;32448;44.960;-0.698;2023-01-04T04:44:47;103004.31;;;4.43;100.00
46718;BME280;32448;44.960;-0.698;2023-01-04T04:47:14;103014.38;;;4.50;100.00
46718;BME280;32448;44.960;-0.698;2023-01-04T04:49:42;103011.78;;;4.50;100.00
46718;BME280;32448;44.960;-0.698;2023-01-04T04:52:09;103016.50;;;4.55;100.00
46718;BME280;32448;44.960;-0.698;2023-01-04T04:54:37;103010.69;;;4.58;100.00
46718;BME280;32448;44.960;-0.698;2023-01-04T04:57:04;103019.72;;;4.63;100.00
46718;BME280;32448;44.960;-0.698;2023-01-04T04:59:35;103018.25;;;4.66;100.00
46718;BME280;32448;44.960;-0.698;2023-01-04T05:02:02;103019.38;;;4.70;100.00
46718;BME280;32448;44.960;-0.698;2023-01-04T05:04:30;103014.66;;;4.76;100.00
46718;BME280;32448;44.960;-0.698;2023-01-04T05:06:58;103018.50;;;4.81;100.00
46718;BME280;32448;44.960;-0.698;2023-01-04T05:09:26;103013.47;;;4.83;100.00
46718;BME280;32448;44.960;-0.698;2023-01-04T05:11:53;103017.28;;;4.88;100.00
46718;BME280;32448;44.960;-0.698;2023-01-04T05:14:39;103008.97;;;4.92;100.00
46718;BME280;32448;44.960;-0.698;2023-01-04T05:17:08;102998.59;;;4.92;100.00
46718;BME280;32448;44.960;-0.698;2023-01-04T05:19:35;103007.16;;;4.91;100.00
46718;BME280;32448;44.960;-0.698;2023-01-04T05:22:04;103003.44;;;4.99;100.00
46718;BME280;32448;44.960;-0.698;2023-01-04T05:24:32;103006.41;;;5.03;100.00
46718;BME280;32448;44.960;-0.698;2023-01-04T05:26:59;103004.69;;;5.04;100.00
46718;BME280;32448;44.960;-0.698;2023-01-04T05:29:27;103015.31;;;5.07;100.00
46718;BME280;32448;44.960;-0.698;2023-01-04T05:32:13;103010.13;;;5.07;100.00
46718;BME280;32448;44.960;-0.698;2023-01-04T05:34:41;103016.41;;;5.10;100.00
46718;BME280;32448;44.960;-0.698;2023-01-04T05:37:08;103014.97;;;5.14;100.00
46718;BME280;32448;44.960;-0.698;2023-01-04T05:39:36;103012.25;;;5.12;100.00
46718;BME280;32448;44.960;-0.698;2023-01-04T05:42:04;103014.63;;;5.21;100.00
46718;BME280;32448;44.960;-0.698;2023-01-04T05:44:51;103021.84;;;5.25;100.00
46718;BME280;32448;44.960;-0.698;2023-01-04T05:47:18;103027.47;;;5.31;100.00
46718;BME280;32448;44.960;-0.698;2023-01-04T05:49:51;103022.88;;;5.27;100.00
46718;BME280;32448;44.960;-0.698;2023-01-04T05:52:19;103033.56;;;5.32;100.00
46718;BME280;32448;44.960;-0.698;2023-01-04T05:54:47;103018.72;;;5.29;100.00
46718;BME280;32448;44.960;-0.698;2023-01-04T05:57:15;103019.81;;;5.33;100.00
46718;BME280;32448;44.960;-0.698;2023-01-04T05:59:43;103017.09;;;5.31;100.00
46718;BME280;32448;44.960;-0.698;2023-01-04T06:02:20;103020.97;;;5.36;100.00
46718;BME280;32448;44.960;-0.698;2023-01-04T06:04:49;103024.78;;;5.41;100.00
46718;BME280;32448;44.960;-0.698;2023-01-04T06:07:28;103022.28;;;5.43;100.00
46718;BME280;32448;44.960;-0.698;2023-01-04T06:09:57;103019.28;;;5.48;100.00
46718;BME280;32448;44.960;-0.698;2023-01-04T06:12:40;102985.78;;;5.28;100.00
46718;BME280;32448;44.960;-0.698;2023-01-04T06:15:28;102963.13;;;5.14;100.00
46718;BME280;32448;44.960;-0.698;2023-01-04T06:17:56;103031.56;;;5.51;100.00
46718;BME280;32448;44.960;-0.698;2023-01-04T06:20:23;103030.31;;;5.58;100.00
46718;BME280;32448;44.960;-0.698;2023-01-04T06:22:51;103030.06;;;5.55;100.00
46718;BME280;32448;44.960;-0.698;2023-01-04T06:25:18;103022.78;;;5.49;100.00
46718;BME280;32448;44.960;-0.698;2023-01-04T06:27:47;103029.06;;;5.53;100.00
46718;BME280;32448;44.960;-0.698;2023-01-04T06:30:15;103028.75;;;5.60;100.00
46718;BME280;32448;44.960;-0.698;2023-01-04T06:32:49;103012.38;;;5.49;100.00
46718;BME280;32448;44.960;-0.698;2023-01-04T06:35:17;103030.66;;;5.62;100.00
46718;BME280;32448;44.960;-0.698;2023-01-04T06:37:44;103030.66;;;5.62;100.00
46718;BME280;32448;44.960;-0.698;2023-01-04T06:40:13;103033.13;;;5.61;100.00
46718;BME280;32448;44.960;-0.698;2023-01-04T06:42:40;103034.47;;;5.67;100.00
46718;BME280;32448;44.960;-0.698;2023-01-04T06:45:12;103034.59;;;5.69;100.00
46718;BME280;32448;44.960;-0.698;2023-01-04T06:47:39;103035.50;;;5.69;100.00
46718;BME280;32448;44.960;-0.698;2023-01-04T06:50:07;103022.19;;;5.65;100.00
46718;BME280;32448;44.960;-0.698;2023-01-04T06:52:37;103033.00;;;5.71;100.00
46718;BME280;32448;44.960;-0.698;2023-01-04T06:55:05;103035.72;;;5.72;100.00
46718;BME280;32448;44.960;-0.698;2023-01-04T06:57:36;103020.47;;;5.65;100.00
46718;BME280;32448;44.960;-0.698;2023-01-04T07:00:04;103032.22;;;5.72;100.00
46718;BME280;32448;44.960;-0.698;2023-01-04T07:02:36;103049.78;;;5.88;100.00
46718;BME280;32448;44.960;-0.698;2023-01-04T07:05:04;103052.84;;;5.82;100.00
46718;BME280;32448;44.960;-0.698;2023-01-04T07:07:33;103051.16;;;5.82;100.00
46718;BME280;32448;44.960;-0.698;2023-01-04T07:10:01;103055.34;;;5.80;100.00
46718;BME280;32448;44.960;-0.698;2023-01-04T07:12:35;103075.91;;;5.89;100.00
46718;BME280;32448;44.960;-0.698;2023-01-04T07:15:05;103060.31;;;5.89;100.00
46718;BME280;32448;44.960;-0.698;2023-01-04T07:17:54;103066.53;;;5.91;100.00
46718;BME280;32448;44.960;-0.698;2023-01-04T07:20:21;103064.06;;;5.93;100.00
46718;BME280;32448;44.960;-0.698;2023-01-04T07:22:49;103046.56;;;5.90;100.00
46718;BME280;32448;44.960;-0.698;2023-01-04T07:25:16;103053.06;;;5.97;100.00
46718;BME280;32448;44.960;-0.698;2023-01-04T07:27:49;103070.25;;;5.95;100.00
46718;BME280;32448;44.960;-0.698;2023-01-04T07:30:17;103067.66;;;6.06;100.00
46718;BME280;32448;44.960;-0.698;2023-01-04T07:32:44;103068.75;;;6.10;100.00
46718;BME280;32448;44.960;-0.698;2023-01-04T07:35:11;103079.84;;;6.07;100.00
46718;BME280;32448;44.960;-0.698;2023-01-04T07:37:40;103063.81;;;6.01;100.00
46718;BME280;32448;44.960;-0.698;2023-01-04T07:40:10;103073.63;;;6.05;100.00
46718;BME280;32448;44.960;-0.698;2023-01-04T07:42:38;103080.63;;;6.06;100.00
46718;BME280;32448;44.960;-0.698;2023-01-04T07:45:06;103085.44;;;6.25;100.00
46718;BME280;32448;44.960;-0.698;2023-01-04T07:47:33;103079.47;;;6.14;100.00
46718;BME280;32448;44.960;-0.698;2023-01-04T07:50:01;103079.47;;;6.14;100.00
46718;BME280;32448;44.960;-0.698;2023-01-04T07:52:28;103079.72;;;6.17;100.00
46718;BME280;32448;44.960;-0.698;2023-01-04T07:54:56;103074.72;;;6.20;100.00
46718;BME280;32448;44.960;-0.698;2023-01-04T07:57:23;103078.22;;;6.21;100.00
46718;BME280;32448;44.960;-0.698;2023-01-04T07:59:51;103079.22;;;6.23;100.00
46718;BME280;32448;44.960;-0.698;2023-01-04T08:02:19;103076.75;;;6.25;100.00
46718;BME280;32448;44.960;-0.698;2023-01-04T08:04:46;103084.28;;;6.33;100.00
46718;BME280;32448;44.960;-0.698;2023-01-04T08:07:15;103090.06;;;6.29;100.00
46718;BME280;32448;44.960;-0.698;2023-01-04T08:09:43;103080.25;;;6.25;100.00
46718;BME280;32448;44.960;-0.698;2023-01-04T08:12:10;103078.53;;;6.26;100.00
46718;BME280;32448;44.960;-0.698;2023-01-04T08:14:39;103078.22;;;6.21;100.00
46718;BME280;32448;44.960;-0.698;2023-01-04T08:17:07;103098.41;;;6.37;100.00
46718;BME280;32448;44.960;-0.698;2023-01-04T08:19:34;103087.66;;;6.32;100.00
46718;BME280;32448;44.960;-0.698;2023-01-04T08:22:01;103083.16;;;6.30;100.00
46718;BME280;32448;44.960;-0.698;2023-01-04T08:24:29;103086.19;;;6.36;100.00
46718;BME280;32448;44.960;-0.698;2023-01-04T08:26:56;103086.53;;;6.40;100.00
46718;BME280;32448;44.960;-0.698;2023-01-04T08:29:24;103095.09;;;6.51;100.00
46718;BME280;32448;44.960;-0.698;2023-01-04T08:32:00;103094.38;;;6.53;100.00
46718;BME280;32448;44.960;-0.698;2023-01-04T08:34:28;103073.06;;;6.46;100.00
46718;BME280;32448;44.960;-0.698;2023-01-04T08:36:55;103079.69;;;6.54;100.00
46718;BME280;32448;44.960;-0.698;2023-01-04T08:39:23;103093.44;;;6.65;100.00
46718;BME280;32448;44.960;-0.698;2023-01-04T08:41:50;103092.75;;;6.67;100.00
46718;BME280;32448;44.960;-0.698;2023-01-04T08:44:28;103094.09;;;6.74;100.00
46718;BME280;32448;44.960;-0.698;2023-01-04T08:46:56;103091.00;;;6.79;100.00
46718;BME280;32448;44.960;-0.698;2023-01-04T08:49:24;103078.41;;;6.85;100.00
46718;BME280;32448;44.960;-0.698;2023-01-04T08:51:52;103049.63;;;6.82;100.00
46718;BME280;32448;44.960;-0.698;2023-01-04T08:54:20;103087.72;;;7.07;100.00
46718;BME280;32448;44.960;-0.698;2023-01-04T08:56:49;103093.22;;;7.11;100.00
46718;BME280;32448;44.960;-0.698;2023-01-04T08:59:16;103082.59;;;7.08;100.00
46718;BME280;32448;44.960;-0.698;2023-01-04T09:01:45;103081.91;;;7.11;100.00
46718;BME280;32448;44.960;-0.698;2023-01-04T09:04:13;103094.72;;;7.21;100.00
46718;BME280;32448;44.960;-0.698;2023-01-04T09:06:41;103097.53;;;7.24;100.00
46718;BME280;32448;44.960;-0.698;2023-01-04T09:09:11;103094.72;;;7.21;100.00
46718;BME280;32448;44.960;-0.698;2023-01-04T09:11:38;103102.16;;;7.28;100.00
46718;BME280;32448;44.960;-0.698;2023-01-04T09:14:06;103071.94;;;7.17;100.00
46718;BME280;32448;44.960;-0.698;2023-01-04T09:16:36;103096.56;;;7.35;100.00
46718;BME280;32448;44.960;-0.698;2023-01-04T09:19:05;103100.19;;;7.37;100.00
46718;BME280;32448;44.960;-0.698;2023-01-04T09:21:32;103101.38;;;7.42;100.00
46718;BME280;32448;44.960;-0.698;2023-01-04T09:24:00;103098.09;;;7.45;100.00
46718;BME280;32448;44.960;-0.698;2023-01-04T09:26:28;103091.56;;;7.51;100.00
46718;BME280;32448;44.960;-0.698;2023-01-04T09:28:55;103102.88;;;7.52;100.00
46718;BME280;32448;44.960;-0.698;2023-01-04T09:31:26;103102.81;;;7.50;100.00
46718;BME280;32448;44.960;-0.698;2023-01-04T09:33:56;103105.00;;;7.57;100.00
46718;BME280;32448;44.960;-0.698;2023-01-04T09:36:44;103112.13;;;7.60;100.00
46718;BME280;32448;44.960;-0.698;2023-01-04T09:39:12;103115.44;;;7.84;100.00
46718;BME280;32448;44.960;-0.698;2023-01-04T09:44:31;103116.03;;;7.93;100.00
46718;BME280;32448;44.960;-0.698;2023-01-04T09:52:57;103092.75;;;8.35;100.00
46718;BME280;32448;44.960;-0.698;2023-01-04T09:55:32;103123.88;;;8.60;100.00
46718;BME280;32448;44.960;-0.698;2023-01-04T10:00:58;103122.97;;;8.88;100.00
46718;BME280;32448;44.960;-0.698;2023-01-04T10:03:31;103130.78;;;9.16;100.00
46718;BME280;32448;44.960;-0.698;2023-01-04T10:06:01;103112.69;;;9.04;100.00
46718;BME280;32448;44.960;-0.698;2023-01-04T10:08:29;103125.47;;;9.14;100.00
46718;BME280;32448;44.960;-0.698;2023-01-04T10:17:17;103132.97;;;9.37;100.00
46718;BME280;32448;44.960;-0.698;2023-01-04T10:20:29;103110.63;;;9.42;100.00
46718;BME280;32448;44.960;-0.698;2023-01-04T10:26:13;103141.41;;;9.77;100.00
46718;BME280;32448;44.960;-0.698;2023-01-04T10:29:01;103135.19;;;9.75;100.00
46718;BME280;32448;44.960;-0.698;2023-01-04T10:31:38;103135.81;;;9.86;100.00
46718;BME280;32448;44.960;-0.698;2023-01-04T10:34:24;103136.00;;;9.89;100.00
46718;BME280;32448;44.960;-0.698;2023-01-04T10:36:59;103136.44;;;9.97;100.00
46718;BME280;32448;44.960;-0.698;2023-01-04T10:39:32;103103.47;;;9.84;100.00
46718;BME280;32448;44.960;-0.698;2023-01-04T10:42:19;103103.28;;;9.96;100.00
46718;BME280;32448;44.960;-0.698;2023-01-04T10:45:21;103133.22;;;10.17;100.00
46718;BME280;32448;44.960;-0.698;2023-01-04T10:51:05;103114.44;;;10.23;100.00
46718;BME280;32448;44.960;-0.698;2023-01-04T10:54:02;103111.19;;;10.27;100.00
46718;BME280;32448;44.960;-0.698;2023-01-04T10:56:41;103114.94;;;10.32;100.00
46718;BME280;32448;44.960;-0.698;2023-01-04T11:01:48;103098.22;;;10.44;100.00
46718;BME280;32448;44.960;-0.698;2023-01-04T11:04:22;103103.22;;;10.56;100.00
46718;BME280;32448;44.960;-0.698;2023-01-04T11:12:14;103098.72;;;10.70;100.00
46718;BME280;32448;44.960;-0.698;2023-01-04T11:14:44;103094.63;;;10.75;100.00
46718;BME280;32448;44.960;-0.698;2023-01-04T11:17:13;103090.94;;;10.87;100.00
46718;BME280;32448;44.960;-0.698;2023-01-04T11:19:41;103095.63;;;10.93;100.00
46718;BME280;32448;44.960;-0.698;2023-01-04T11:24:44;103088.53;;;11.08;100.00
46718;BME280;32448;44.960;-0.698;2023-01-04T11:27:45;103075.28;;;11.05;100.00
46718;BME280;32448;44.960;-0.698;2023-01-04T11:30:17;103084.84;;;11.21;100.00
46718;BME280;32448;44.960;-0.698;2023-01-04T11:33:00;103088.66;;;11.27;100.00
46718;BME280;32448;44.960;-0.698;2023-01-04T11:35:42;103085.31;;;11.30;100.00
46718;BME280;32448;44.960;-0.698;2023-01-04T11:38:14;103082.03;;;11.34;100.00
46718;BME280;32448;44.960;-0.698;2023-01-04T11:40:54;103081.34;;;11.38;100.00
46718;BME280;32448;44.960;-0.698;2023-01-04T11:43:23;103041.50;;;11.26;100.00
46718;BME280;32448;44.960;-0.698;2023-01-04T11:50:58;103046.59;;;11.58;100.00
46718;BME280;32448;44.960;-0.698;2023-01-04T11:53:30;103050.84;;;11.74;100.00
46718;BME280;32448;44.960;-0.698;2023-01-04T11:56:20;103051.31;;;11.83;100.00
46718;BME280;32448;44.960;-0.698;2023-01-04T11:59:15;103052.47;;;11.88;100.00
46718;BME280;32448;44.960;-0.698;2023-01-04T12:05:20;103041.59;;;11.98;100.00
46718;BME280;32448;44.960;-0.698;2023-01-04T12:07:57;103049.97;;;12.09;100.00
46718;BME280;32448;44.960;-0.698;2023-01-04T12:10:26;103032.78;;;12.16;100.00
46718;BME280;32448;44.960;-0.698;2023-01-04T12:12:55;103035.78;;;12.23;100.00
46718;BME280;32448;44.960;-0.698;2023-01-04T12:18:25;103032.34;;;12.44;100.00
46718;BME280;32448;44.960;-0.698;2023-01-04T12:21:00;103032.59;;;12.50;100.00
46718;BME280;32448;44.960;-0.698;2023-01-04T12:23:28;103045.88;;;12.53;100.00
46718;BME280;32448;44.960;-0.698;2023-01-04T12:25:56;103038.50;;;12.44;100.00
46718;BME280;32448;44.960;-0.698;2023-01-04T12:28:36;103029.88;;;12.47;100.00
46718;BME280;32448;44.960;-0.698;2023-01-04T12:33:55;103020.94;;;12.62;100.00
46718;BME280;32448;44.960;-0.698;2023-01-04T12:50:17;103017.22;;;13.17;100.00
46718;BME280;32448;44.960;-0.698;2023-01-04T13:04:44;103014.31;;;13.10;100.00
46718;BME280;32448;44.960;-0.698;2023-01-04T13:07:17;103012.75;;;13.14;100.00
46718;BME280;32448;44.960;-0.698;2023-01-04T13:09:55;102997.78;;;13.13;100.00
46718;BME280;32448;44.960;-0.698;2023-01-04T13:15:05;102995.72;;;13.25;100.00
46718;BME280;32448;44.960;-0.698;2023-01-04T13:17:45;102985.00;;;13.21;100.00
46718;BME280;32448;44.960;-0.698;2023-01-04T13:20:23;102981.69;;;13.25;100.00
46718;BME280;32448;44.960;-0.698;2023-01-04T13:22:54;102987.84;;;13.25;100.00
46718;BME280;32448;44.960;-0.698;2023-01-04T13:25:23;102988.06;;;13.31;100.00
46718;BME280;32448;44.960;-0.698;2023-01-04T13:28:02;102979.22;;;13.29;100.00
46718;BME280;32448;44.960;-0.698;2023-01-04T13:30:37;102982.59;;;13.25;100.00
46718;BME280;32448;44.960;-0.698;2023-01-04T13:33:22;102983.53;;;13.27;100.00
46718;BME280;32448;44.960;-0.698;2023-01-04T13:36:02;102984.19;;;13.22;100.00
46718;BME280;32448;44.960;-0.698;2023-01-04T13:38:38;102977.34;;;13.25;100.00
46718;BME280;32448;44.960;-0.698;2023-01-04T13:41:19;102978.25;;;13.27;100.00
46718;BME280;32448;44.960;-0.698;2023-01-04T13:46:23;102976.38;;;13.23;100.00
46718;BME280;32448;44.960;-0.698;2023-01-04T13:48:58;102972.38;;;13.12;100.00
46718;BME280;32448;44.960;-0.698;2023-01-04T13:51:31;102958.72;;;13.00;100.00
46718;BME280;32448;44.960;-0.698;2023-01-04T13:54:18;102963.00;;;12.98;100.00
46718;BME280;32448;44.960;-0.698;2023-01-04T13:56:46;102957.00;;;13.00;100.00
46718;BME280;32448;44.960;-0.698;2023-01-04T13:59:21;102969.78;;;12.93;100.00
46718;BME280;32448;44.960;-0.698;2023-01-04T14:01:49;102970.81;;;12.96;100.00
46718;BME280;32448;44.960;-0.698;2023-01-04T14:04:29;102976.28;;;13.01;100.00
46718;BME280;32448;44.960;-0.698;2023-01-04T14:06:58;102964.13;;;13.03;100.00
46718;BME280;32448;44.960;-0.698;2023-01-04T14:09:29;102975.25;;;13.18;100.00
46718;BME280;32448;44.960;-0.698;2023-01-04T14:12:06;102960.63;;;13.04;100.00
46718;BME280;32448;44.960;-0.698;2023-01-04T14:22:54;102958.34;;;13.11;100.00
46718;BME280;32448;44.960;-0.698;2023-01-04T14:25:37;102963.72;;;13.15;100.00
46718;BME280;32448;44.960;-0.698;2023-01-04T14:28:27;102950.31;;;13.08;100.00
46718;BME280;32448;44.960;-0.698;2023-01-04T14:44:20;102961.34;;;13.00;100.00
46718;BME280;32448;44.960;-0.698;2023-01-04T14:46:51;102950.47;;;12.91;100.00
46718;BME280;32448;44.960;-0.698;2023-01-04T14:49:20;102924.47;;;12.76;100.00
46718;BME280;32448;44.960;-0.698;2023-01-04T14:51:56;102958.78;;;13.01;100.00
46718;BME280;32448;44.960;-0.698;2023-01-04T14:54:26;102954.69;;;13.08;100.00
46718;BME280;32448;44.960;-0.698;2023-01-04T14:56:55;102956.75;;;13.15;100.00
46718;BME280;32448;44.960;-0.698;2023-01-04T14:59:24;102950.25;;;13.07;100.00
46718;BME280;32448;44.960;-0.698;2023-01-04T15:01:55;102960.81;;;13.08;100.00
46718;BME280;32448;44.960;-0.698;2023-01-04T15:04:23;102955.06;;;12.96;100.00
46718;BME280;32448;44.960;-0.698;2023-01-04T15:06:59;102962.78;;;12.93;100.00
46718;BME280;32448;44.960;-0.698;2023-01-04T15:09:28;102962.03;;;12.96;100.00
46718;BME280;32448;44.960;-0.698;2023-01-04T15:11:58;102940.53;;;12.84;100.00
46718;BME280;32448;44.960;-0.698;2023-01-04T15:14:27;102952.13;;;12.89;100.00
46718;BME280;32448;44.960;-0.698;2023-01-04T15:16:54;102953.03;;;12.89;100.00
46718;BME280;32448;44.960;-0.698;2023-01-04T15:19:22;102953.19;;;12.94;100.00
46718;BME280;32448;44.960;-0.698;2023-01-04T15:21:51;102953.53;;;13.01;100.00
46718;BME280;32448;44.960;-0.698;2023-01-04T15:24:19;102957.06;;;13.02;100.00